sensor_id;sensor_type;location;lat;lon;timestamp;temperature;humidity
52899;DHT22;38763;53.096;6.062;2022-11-09T00:01:32;11.20;99.90
52899;DHT22;38763;53.096;6.062;2022-11-09T00:03:59;11.30;99.90
52899;DHT22;38763;53.096;6.062;2022-11-09T00:06:26;11.30;99.90
52899;DHT22;38763;53.096;6.062;2022-11-09T00:08:52;11.20;99.90
52899;DHT22;38763;53.096;6.062;2022-11-09T00:11:18;11.40;99.90
52899;DHT22;38763;53.096;6.062;2022-11-09T00:13:44;11.40;99.90
52899;DHT22;38763;53.096;6.062;2022-11-09T00:16:13;11.20;99.90
52899;DHT22;38763;53.096;6.062;2022-11-09T00:18:39;11.20;99.90
52899;DHT22;38763;53.096;6.062;2022-11-09T00:21:17;11.20;99.90
52899;DHT22;38763;53.096;6.062;2022-11-09T00:23:43;11.20;99.90
52899;DHT22;38763;53.096;6.062;2022-11-09T00:26:10;11.20;99.90
52899;DHT22;38763;53.096;6.062;2022-11-09T00:28:36;11.30;99.90
52899;DHT22;38763;53.096;6.062;2022-11-09T00:31:04;11.40;99.90
52899;DHT22;38763;53.096;6.062;2022-11-09T00:33:30;11.30;99.90
52899;DHT22;38763;53.096;6.062;2022-11-09T00:35:56;11.40;99.90
52899;DHT22;38763;53.096;6.062;2022-11-09T00:38:22;11.30;99.90
52899;DHT22;38763;53.096;6.062;2022-11-09T00:40:48;11.40;99.90
52899;DHT22;38763;53.096;6.062;2022-11-09T00:43:14;11.20;99.90
52899;DHT22;38763;53.096;6.062;2022-11-09T00:45:41;11.40;99.90
52899;DHT22;38763;53.096;6.062;2022-11-09T00:48:07;11.40;99.90
52899;DHT22;38763;53.096;6.062;2022-11-09T00:50:32;11.40;99.90
52899;DHT22;38763;53.096;6.062;2022-11-09T00:52:59;11.30;99.90
52899;DHT22;38763;53.096;6.062;2022-11-09T00:55:24;11.20;99.90
52899;DHT22;38763;53.096;6.062;2022-11-09T00:57:50;11.30;99.90
52899;DHT22;38763;53.096;6.062;2022-11-09T01:00:17;11.50;99.90
52899;DHT22;38763;53.096;6.062;2022-11-09T01:02:43;11.40;99.90
52899;DHT22;38763;53.096;6.062;2022-11-09T01:05:08;11.40;99.90
52899;DHT22;38763;53.096;6.062;2022-11-09T01:07:36;11.30;99.90
52899;DHT22;38763;53.096;6.062;2022-11-09T01:10:02;11.50;99.90
52899;DHT22;38763;53.096;6.062;2022-11-09T01:12:28;11.50;99.90
52899;DHT22;38763;53.096;6.062;2022-11-09T01:14:53;11.60;99.90
52899;DHT22;38763;53.096;6.062;2022-11-09T01:17:19;11.60;99.90
52899;DHT22;38763;53.096;6.062;2022-11-09T01:19:45;11.70;99.90
52899;DHT22;38763;53.096;6.062;2022-11-09T01:22:11;11.90;99.90
52899;DHT22;38763;53.096;6.062;2022-11-09T01:24:37;11.90;99.90
52899;DHT22;38763;53.096;6.062;2022-11-09T01:27:02;11.90;99.90
52899;DHT22;38763;53.096;6.062;2022-11-09T01:29:28;12.10;99.90
52899;DHT22;38763;53.096;6.062;2022-11-09T01:31:54;12.00;99.90
52899;DHT22;38763;53.096;6.062;2022-11-09T01:34:20;11.80;99.90
52899;DHT22;38763;53.096;6.062;2022-11-09T01:36:48;11.80;99.90
52899;DHT22;38763;53.096;6.062;2022-11-09T01:39:14;11.80;99.90
52899;DHT22;38763;53.096;6.062;2022-11-09T01:41:39;11.70;99.90
52899;DHT22;38763;53.096;6.062;2022-11-09T01:44:09;11.70;99.90
52899;DHT22;38763;53.096;6.062;2022-11-09T01:52:02;11.80;99.90
52899;DHT22;38763;53.096;6.062;2022-11-09T01:54:32;11.80;99.90
52899;DHT22;38763;53.096;6.062;2022-11-09T01:57:05;11.60;99.90
52899;DHT22;38763;53.096;6.062;2022-11-09T01:59:38;11.60;99.90
52899;DHT22;38763;53.096;6.062;2022-11-09T02:02:04;11.70;99.90
52899;DHT22;38763;53.096;6.062;2022-11-09T02:04:54;11.60;99.90
52899;DHT22;38763;53.096;6.062;2022-11-09T02:07:21;11.60;99.90
52899;DHT22;38763;53.096;6.062;2022-11-09T02:12:36;11.60;99.90
52899;DHT22;38763;53.096;6.062;2022-11-09T02:15:04;11.50;99.90
52899;DHT22;38763;53.096;6.062;2022-11-09T02:17:30;11.40;99.90
52899;DHT22;38763;53.096;6.062;2022-11-09T02:19:59;11.40;99.90
52899;DHT22;38763;53.096;6.062;2022-11-09T02:22:25;11.20;99.90
52899;DHT22;38763;53.096;6.062;2022-11-09T02:24:51;11.20;99.90
52899;DHT22;38763;53.096;6.062;2022-11-09T02:27:18;11.20;99.90
52899;DHT22;38763;53.096;6.062;2022-11-09T02:29:46;11.10;99.90
52899;DHT22;38763;53.096;6.062;2022-11-09T02:32:20;11.20;99.90
52899;DHT22;38763;53.096;6.062;2022-11-09T02:34:46;11.20;99.90
52899;DHT22;38763;53.096;6.062;2022-11-09T02:37:12;11.30;99.90
52899;DHT22;38763;53.096;6.062;2022-11-09T02:39:38;11.10;99.90
52899;DHT22;38763;53.096;6.062;2022-11-09T02:42:10;11.20;99.90
52899;DHT22;38763;53.096;6.062;2022-11-09T02:44:40;11.20;99.90
52899;DHT22;38763;53.096;6.062;2022-11-09T02:47:08;11.30;99.90
52899;DHT22;38763;53.096;6.062;2022-11-09T02:49:33;11.30;99.90
52899;DHT22;38763;53.096;6.062;2022-11-09T02:51:59;11.10;99.90
52899;DHT22;38763;53.096;6.062;2022-11-09T02:54:25;11.20;99.90
52899;DHT22;38763;53.096;6.062;2022-11-09T02:56:50;11.10;99.90
52899;DHT22;38763;53.096;6.062;2022-11-09T02:59:16;11.00;99.90
52899;DHT22;38763;53.096;6.062;2022-11-09T03:01:41;11.00;99.90
52899;DHT22;38763;53.096;6.062;2022-11-09T03:04:07;11.00;99.90
52899;DHT22;38763;53.096;6.062;2022-11-09T03:06:33;10.90;99.90
52899;DHT22;38763;53.096;6.062;2022-11-09T03:09:09;11.00;99.90
52899;DHT22;38763;53.096;6.062;2022-11-09T03:11:35;11.10;99.90
52899;DHT22;38763;53.096;6.062;2022-11-09T03:14:02;11.00;99.90
52899;DHT22;38763;53.096;6.062;2022-11-09T03:16:28;11.00;99.90
52899;DHT22;38763;53.096;6.062;2022-11-09T03:18:54;11.10;99.90
52899;DHT22;38763;53.096;6.062;2022-11-09T03:21:20;10.90;99.90
52899;DHT22;38763;53.096;6.062;2022-11-09T03:23:47;11.00;99.90
52899;DHT22;38763;53.096;6.062;2022-11-09T03:26:12;11.10;99.90
52899;DHT22;38763;53.096;6.062;2022-11-09T03:28:38;11.10;99.90
52899;DHT22;38763;53.096;6.062;2022-11-09T03:31:04;11.00;99.90
52899;DHT22;38763;53.096;6.062;2022-11-09T03:33:30;11.00;99.90
52899;DHT22;38763;53.096;6.062;2022-11-09T03:35:55;11.00;99.90
52899;DHT22;38763;53.096;6.062;2022-11-09T03:38:21;11.00;99.90
52899;DHT22;38763;53.096;6.062;2022-11-09T03:40:46;10.90;99.90
52899;DHT22;38763;53.096;6.062;2022-11-09T03:43:12;10.90;99.90
52899;DHT22;38763;53.096;6.062;2022-11-09T03:45:38;11.00;99.90
52899;DHT22;38763;53.096;6.062;2022-11-09T03:48:04;10.90;99.90
52899;DHT22;38763;53.096;6.062;2022-11-09T03:50:31;11.00;99.90
52899;DHT22;38763;53.096;6.062;2022-11-09T03:52:57;11.00;99.90
52899;DHT22;38763;53.096;6.062;2022-11-09T03:55:23;11.00;99.90
52899;DHT22;38763;53.096;6.062;2022-11-09T03:57:49;10.90;99.90
52899;DHT22;38763;53.096;6.062;2022-11-09T04:00:16;10.90;99.90
52899;DHT22;38763;53.096;6.062;2022-11-09T04:02:42;11.00;99.90
52899;DHT22;38763;53.096;6.062;2022-11-09T04:05:08;11.00;99.90
52899;DHT22;38763;53.096;6.062;2022-11-09T04:07:34;10.90;99.90
52899;DHT22;38763;53.096;6.062;2022-11-09T04:10:00;11.00;99.90
52899;DHT22;38763;53.096;6.062;2022-11-09T04:12:26;10.90;99.90
52899;DHT22;38763;53.096;6.062;2022-11-09T04:14:51;10.90;99.90
52899;DHT22;38763;53.096;6.062;2022-11-09T04:17:17;11.10;99.90
52899;DHT22;38763;53.096;6.062;2022-11-09T04:19:42;11.00;99.90
52899;DHT22;38763;53.096;6.062;2022-11-09T04:22:08;11.10;99.90
52899;DHT22;38763;53.096;6.062;2022-11-09T04:24:33;11.10;99.90
52899;DHT22;38763;53.096;6.062;2022-11-09T04:26:59;11.10;99.90
52899;DHT22;38763;53.096;6.062;2022-11-09T04:29:25;11.10;99.90
52899;DHT22;38763;53.096;6.062;2022-11-09T04:31:50;11.10;99.90
52899;DHT22;38763;53.096;6.062;2022-11-09T04:34:16;11.10;99.90
52899;DHT22;38763;53.096;6.062;2022-11-09T04:36:42;11.00;99.90
52899;DHT22;38763;53.096;6.062;2022-11-09T04:39:08;11.00;99.90
52899;DHT22;38763;53.096;6.062;2022-11-09T04:41:34;11.00;99.90
52899;DHT22;38763;53.096;6.062;2022-11-09T04:44:00;11.00;99.90
52899;DHT22;38763;53.096;6.062;2022-11-09T04:46:26;11.10;99.90
52899;DHT22;38763;53.096;6.062;2022-11-09T04:48:52;11.10;99.90
52899;DHT22;38763;53.096;6.062;2022-11-09T04:51:17;11.10;99.90
52899;DHT22;38763;53.096;6.062;2022-11-09T04:53:43;11.10;99.90
52899;DHT22;38763;53.096;6.062;2022-11-09T04:56:10;11.20;99.90
52899;DHT22;38763;53.096;6.062;2022-11-09T04:58:35;11.10;99.90
52899;DHT22;38763;53.096;6.062;2022-11-09T05:01:09;11.00;99.90
52899;DHT22;38763;53.096;6.062;2022-11-09T05:03:36;11.10;99.90
52899;DHT22;38763;53.096;6.062;2022-11-09T05:06:01;11.00;99.90
52899;DHT22;38763;53.096;6.062;2022-11-09T05:08:47;11.00;99.90
52899;DHT22;38763;53.096;6.062;2022-11-09T05:11:13;11.00;99.90
52899;DHT22;38763;53.096;6.062;2022-11-09T05:13:38;11.10;99.90
52899;DHT22;38763;53.096;6.062;2022-11-09T05:16:04;11.10;99.90
52899;DHT22;38763;53.096;6.062;2022-11-09T05:18:30;11.10;99.90
52899;DHT22;38763;53.096;6.062;2022-11-09T05:20:59;11.20;99.90
52899;DHT22;38763;53.096;6.062;2022-11-09T05:23:25;11.10;99.90
52899;DHT22;38763;53.096;6.062;2022-11-09T05:26:10;11.10;99.90
52899;DHT22;38763;53.096;6.062;2022-11-09T05:28:36;11.20;99.90
52899;DHT22;38763;53.096;6.062;2022-11-09T05:31:01;11.10;99.90
52899;DHT22;38763;53.096;6.062;2022-11-09T05:33:27;11.20;99.90
52899;DHT22;38763;53.096;6.062;2022-11-09T05:35:56;11.20;99.90
52899;DHT22;38763;53.096;6.062;2022-11-09T05:38:23;11.10;99.90
52899;DHT22;38763;53.096;6.062;2022-11-09T05:40:49;11.20;99.90
52899;DHT22;38763;53.096;6.062;2022-11-09T05:43:15;11.00;99.90
52899;DHT22;38763;53.096;6.062;2022-11-09T05:45:41;11.00;99.90
52899;DHT22;38763;53.096;6.062;2022-11-09T05:48:08;11.10;99.90
52899;DHT22;38763;53.096;6.062;2022-11-09T05:50:33;11.00;99.90
52899;DHT22;38763;53.096;6.062;2022-11-09T05:53:00;10.90;99.90
52899;DHT22;38763;53.096;6.062;2022-11-09T05:55:26;10.90;99.90
52899;DHT22;38763;53.096;6.062;2022-11-09T05:57:52;11.00;99.90
52899;DHT22;38763;53.096;6.062;2022-11-09T06:00:18;10.80;99.90
52899;DHT22;38763;53.096;6.062;2022-11-09T06:02:43;10.90;99.90
52899;DHT22;38763;53.096;6.062;2022-11-09T06:05:09;10.90;99.90
52899;DHT22;38763;53.096;6.062;2022-11-09T06:07:35;10.80;99.90
52899;DHT22;38763;53.096;6.062;2022-11-09T06:10:01;10.80;99.90
52899;DHT22;38763;53.096;6.062;2022-11-09T06:12:26;10.80;99.90
52899;DHT22;38763;53.096;6.062;2022-11-09T06:14:52;10.80;99.90
52899;DHT22;38763;53.096;6.062;2022-11-09T06:17:17;10.60;99.90
52899;DHT22;38763;53.096;6.062;2022-11-09T06:19:43;10.60;99.90
52899;DHT22;38763;53.096;6.062;2022-11-09T06:22:09;10.70;99.90
52899;DHT22;38763;53.096;6.062;2022-11-09T06:24:34;10.70;99.90
52899;DHT22;38763;53.096;6.062;2022-11-09T06:27:00;10.60;99.90
52899;DHT22;38763;53.096;6.062;2022-11-09T06:29:26;10.60;99.90
52899;DHT22;38763;53.096;6.062;2022-11-09T06:31:52;10.70;99.90
52899;DHT22;38763;53.096;6.062;2022-11-09T06:34:17;10.70;99.90
52899;DHT22;38763;53.096;6.062;2022-11-09T06:36:43;10.70;99.90
52899;DHT22;38763;53.096;6.062;2022-11-09T06:39:09;10.70;99.90
52899;DHT22;38763;53.096;6.062;2022-11-09T06:41:34;10.60;99.90
52899;DHT22;38763;53.096;6.062;2022-11-09T06:44:00;10.60;99.90
52899;DHT22;38763;53.096;6.062;2022-11-09T06:46:26;10.60;99.90
52899;DHT22;38763;53.096;6.062;2022-11-09T06:48:52;10.60;99.90
52899;DHT22;38763;53.096;6.062;2022-11-09T06:51:17;10.70;99.90
52899;DHT22;38763;53.096;6.062;2022-11-09T06:53:44;10.70;99.90
52899;DHT22;38763;53.096;6.062;2022-11-09T06:56:10;10.70;99.90
52899;DHT22;38763;53.096;6.062;2022-11-09T06:58:36;10.60;99.90
52899;DHT22;38763;53.096;6.062;2022-11-09T07:01:14;10.60;99.90
52899;DHT22;38763;53.096;6.062;2022-11-09T07:03:41;10.60;99.90
52899;DHT22;38763;53.096;6.062;2022-11-09T07:06:08;10.50;99.90
52899;DHT22;38763;53.096;6.062;2022-11-09T07:08:34;10.60;99.90
52899;DHT22;38763;53.096;6.062;2022-11-09T07:11:08;10.50;99.90
52899;DHT22;38763;53.096;6.062;2022-11-09T07:13:34;10.50;99.90
52899;DHT22;38763;53.096;6.062;2022-11-09T07:16:00;10.50;99.90
52899;DHT22;38763;53.096;6.062;2022-11-09T07:18:25;10.60;99.90
52899;DHT22;38763;53.096;6.062;2022-11-09T07:20:51;10.50;99.90
52899;DHT22;38763;53.096;6.062;2022-11-09T07:23:16;10.50;99.90
52899;DHT22;38763;53.096;6.062;2022-11-09T07:25:42;10.50;99.90
52899;DHT22;38763;53.096;6.062;2022-11-09T07:28:09;10.50;99.90
52899;DHT22;38763;53.096;6.062;2022-11-09T07:30:35;10.50;99.90
52899;DHT22;38763;53.096;6.062;2022-11-09T07:33:02;10.50;99.90
52899;DHT22;38763;53.096;6.062;2022-11-09T07:35:28;10.40;99.90
52899;DHT22;38763;53.096;6.062;2022-11-09T07:37:58;10.40;99.90
52899;DHT22;38763;53.096;6.062;2022-11-09T07:40:24;10.40;99.90
52899;DHT22;38763;53.096;6.062;2022-11-09T07:42:50;10.40;99.90
52899;DHT22;38763;53.096;6.062;2022-11-09T07:45:15;10.40;99.90
52899;DHT22;38763;53.096;6.062;2022-11-09T07:47:41;10.50;99.90
52899;DHT22;38763;53.096;6.062;2022-11-09T07:50:07;10.50;99.90
52899;DHT22;38763;53.096;6.062;2022-11-09T07:52:32;10.60;99.90
52899;DHT22;38763;53.096;6.062;2022-11-09T07:54:58;10.50;99.90
52899;DHT22;38763;53.096;6.062;2022-11-09T07:57:23;10.70;99.90
52899;DHT22;38763;53.096;6.062;2022-11-09T07:59:49;10.60;99.90
52899;DHT22;38763;53.096;6.062;2022-11-09T08:02:17;10.70;99.90
52899;DHT22;38763;53.096;6.062;2022-11-09T08:04:43;10.80;99.90
52899;DHT22;38763;53.096;6.062;2022-11-09T08:07:09;10.70;99.90
52899;DHT22;38763;53.096;6.062;2022-11-09T08:09:34;10.80;99.90
52899;DHT22;38763;53.096;6.062;2022-11-09T08:12:00;10.70;99.90
52899;DHT22;38763;53.096;6.062;2022-11-09T08:14:25;10.70;99.90
52899;DHT22;38763;53.096;6.062;2022-11-09T08:16:51;10.70;99.90
52899;DHT22;38763;53.096;6.062;2022-11-09T08:19:17;10.80;99.90
52899;DHT22;38763;53.096;6.062;2022-11-09T08:21:42;10.90;99.90
52899;DHT22;38763;53.096;6.062;2022-11-09T08:24:08;10.80;99.90
52899;DHT22;38763;53.096;6.062;2022-11-09T08:26:34;10.90;99.90
52899;DHT22;38763;53.096;6.062;2022-11-09T08:28:59;10.90;99.90
52899;DHT22;38763;53.096;6.062;2022-11-09T08:31:25;11.00;99.90
52899;DHT22;38763;53.096;6.062;2022-11-09T08:33:51;11.00;99.90
52899;DHT22;38763;53.096;6.062;2022-11-09T08:36:17;11.10;99.90
52899;DHT22;38763;53.096;6.062;2022-11-09T08:38:43;11.10;99.90
52899;DHT22;38763;53.096;6.062;2022-11-09T08:41:10;11.10;99.90
52899;DHT22;38763;53.096;6.062;2022-11-09T08:43:36;11.10;99.90
52899;DHT22;38763;53.096;6.062;2022-11-09T08:46:02;11.10;99.90
52899;DHT22;38763;53.096;6.062;2022-11-09T08:48:27;11.10;99.90
52899;DHT22;38763;53.096;6.062;2022-11-09T08:50:55;11.30;99.90
52899;DHT22;38763;53.096;6.062;2022-11-09T08:53:22;11.30;99.90
52899;DHT22;38763;53.096;6.062;2022-11-09T08:55:49;11.50;99.90
52899;DHT22;38763;53.096;6.062;2022-11-09T08:58:14;11.40;99.90
52899;DHT22;38763;53.096;6.062;2022-11-09T09:00:40;11.40;99.90
52899;DHT22;38763;53.096;6.062;2022-11-09T09:03:06;11.60;99.90
52899;DHT22;38763;53.096;6.062;2022-11-09T09:05:33;11.50;99.90
52899;DHT22;38763;53.096;6.062;2022-11-09T09:08:00;11.70;99.90
52899;DHT22;38763;53.096;6.062;2022-11-09T09:10:26;11.70;99.90
52899;DHT22;38763;53.096;6.062;2022-11-09T09:12:52;11.80;99.90
52899;DHT22;38763;53.096;6.062;2022-11-09T09:15:17;11.80;99.90
52899;DHT22;38763;53.096;6.062;2022-11-09T09:17:43;11.80;99.90
52899;DHT22;38763;53.096;6.062;2022-11-09T09:20:09;11.90;99.90
52899;DHT22;38763;53.096;6.062;2022-11-09T09:22:35;12.00;99.90
52899;DHT22;38763;53.096;6.062;2022-11-09T09:25:00;12.10;99.90
52899;DHT22;38763;53.096;6.062;2022-11-09T09:27:26;12.10;99.90
52899;DHT22;38763;53.096;6.062;2022-11-09T09:29:54;12.00;99.90
52899;DHT22;38763;53.096;6.062;2022-11-09T09:32:20;12.10;99.90
52899;DHT22;38763;53.096;6.062;2022-11-09T09:34:45;12.00;99.90
52899;DHT22;38763;53.096;6.062;2022-11-09T09:37:11;12.10;99.90
52899;DHT22;38763;53.096;6.062;2022-11-09T09:39:37;12.00;99.90
52899;DHT22;38763;53.096;6.062;2022-11-09T09:42:11;12.10;99.90
52899;DHT22;38763;53.096;6.062;2022-11-09T09:44:39;12.20;99.90
52899;DHT22;38763;53.096;6.062;2022-11-09T09:49:55;12.20;99.90
52899;DHT22;38763;53.096;6.062;2022-11-09T09:52:33;12.30;99.90
52899;DHT22;38763;53.096;6.062;2022-11-09T09:57:45;12.30;99.90
52899;DHT22;38763;53.096;6.062;2022-11-09T10:00:24;12.40;99.90
52899;DHT22;38763;53.096;6.062;2022-11-09T10:02:51;12.40;99.90
52899;DHT22;38763;53.096;6.062;2022-11-09T10:05:18;12.40;99.90
52899;DHT22;38763;53.096;6.062;2022-11-09T10:08:15;12.40;99.90
52899;DHT22;38763;53.096;6.062;2022-11-09T10:11:07;12.40;99.90
52899;DHT22;38763;53.096;6.062;2022-11-09T10:13:56;12.40;99.90
52899;DHT22;38763;53.096;6.062;2022-11-09T10:16:26;12.50;99.90
52899;DHT22;38763;53.096;6.062;2022-11-09T10:19:02;12.50;99.90
52899;DHT22;38763;53.096;6.062;2022-11-09T10:21:39;12.50;99.90
52899;DHT22;38763;53.096;6.062;2022-11-09T10:27:35;12.70;99.90
52899;DHT22;38763;53.096;6.062;2022-11-09T10:30:10;12.70;99.90
52899;DHT22;38763;53.096;6.062;2022-11-09T10:32:37;12.80;99.90
52899;DHT22;38763;53.096;6.062;2022-11-09T10:35:17;12.80;99.90
52899;DHT22;38763;53.096;6.062;2022-11-09T10:37:46;12.70;99.90
52899;DHT22;38763;53.096;6.062;2022-11-09T10:43:00;12.90;99.90
52899;DHT22;38763;53.096;6.062;2022-11-09T10:45:34;12.80;99.90
52899;DHT22;38763;53.096;6.062;2022-11-09T10:48:00;12.70;99.90
52899;DHT22;38763;53.096;6.062;2022-11-09T10:53:21;12.80;99.90
52899;DHT22;38763;53.096;6.062;2022-11-09T10:56:18;12.90;99.90
52899;DHT22;38763;53.096;6.062;2022-11-09T10:58:48;12.90;99.90
52899;DHT22;38763;53.096;6.062;2022-11-09T11:01:21;12.90;99.90
52899;DHT22;38763;53.096;6.062;2022-11-09T11:03:54;12.90;99.90
52899;DHT22;38763;53.096;6.062;2022-11-09T11:11:29;12.90;99.90
52899;DHT22;38763;53.096;6.062;2022-11-09T11:16:49;12.90;99.90
52899;DHT22;38763;53.096;6.062;2022-11-09T11:25:00;12.90;99.90
52899;DHT22;38763;53.096;6.062;2022-11-09T11:32:35;13.00;99.90
52899;DHT22;38763;53.096;6.062;2022-11-09T11:35:03;13.00;99.90
52899;DHT22;38763;53.096;6.062;2022-11-09T11:37:37;13.10;99.90
52899;DHT22;38763;53.096;6.062;2022-11-09T11:40:14;13.10;99.90
52899;DHT22;38763;53.096;6.062;2022-11-09T11:45:36;13.00;99.90
52899;DHT22;38763;53.096;6.062;2022-11-09T12:04:56;12.90;99.90
52899;DHT22;38763;53.096;6.062;2022-11-09T12:07:56;12.90;99.90
52899;DHT22;38763;53.096;6.062;2022-11-09T12:16:26;13.00;99.90
52899;DHT22;38763;53.096;6.062;2022-11-09T12:22:10;13.10;99.90
52899;DHT22;38763;53.096;6.062;2022-11-09T12:30:13;13.30;99.90
52899;DHT22;38763;53.096;6.062;2022-11-09T12:33:00;13.30;99.90
52899;DHT22;38763;53.096;6.062;2022-11-09T12:35:31;13.30;99.90
52899;DHT22;38763;53.096;6.062;2022-11-09T12:38:04;13.30;99.90
52899;DHT22;38763;53.096;6.062;2022-11-09T12:40:53;13.10;99.90
52899;DHT22;38763;53.096;6.062;2022-11-09T12:43:30;12.90;99.90
52899;DHT22;38763;53.096;6.062;2022-11-09T12:45:57;12.90;99.90
52899;DHT22;38763;53.096;6.062;2022-11-09T12:48:32;12.70;99.90
52899;DHT22;38763;53.096;6.062;2022-11-09T12:51:00;12.60;99.90
52899;DHT22;38763;53.096;6.062;2022-11-09T12:53:29;12.60;99.90
52899;DHT22;38763;53.096;6.062;2022-11-09T12:58:38;12.50;99.90
52899;DHT22;38763;53.096;6.062;2022-11-09T13:01:11;12.40;99.90
52899;DHT22;38763;53.096;6.062;2022-11-09T13:03:53;12.40;99.90
52899;DHT22;38763;53.096;6.062;2022-11-09T13:06:27;12.20;99.90
52899;DHT22;38763;53.096;6.062;2022-11-09T13:09:03;12.10;99.90
52899;DHT22;38763;53.096;6.062;2022-11-09T13:11:42;12.10;99.90
52899;DHT22;38763;53.096;6.062;2022-11-09T13:16:59;11.90;99.90
52899;DHT22;38763;53.096;6.062;2022-11-09T13:24:49;12.00;99.90
52899;DHT22;38763;53.096;6.062;2022-11-09T13:27:45;12.10;99.90
52899;DHT22;38763;53.096;6.062;2022-11-09T13:30:38;12.20;99.90
52899;DHT22;38763;53.096;6.062;2022-11-09T13:38:23;12.20;99.90
52899;DHT22;38763;53.096;6.062;2022-11-09T13:43:30;12.20;99.90
52899;DHT22;38763;53.096;6.062;2022-11-09T13:46:00;12.10;99.90
52899;DHT22;38763;53.096;6.062;2022-11-09T13:56:35;12.10;99.90
52899;DHT22;38763;53.096;6.062;2022-11-09T13:59:16;12.10;99.90
52899;DHT22;38763;53.096;6.062;2022-11-09T14:01:48;12.10;99.90
52899;DHT22;38763;53.096;6.062;2022-11-09T14:04:22;12.10;99.90
52899;DHT22;38763;53.096;6.062;2022-11-09T14:06:48;12.00;99.90
52899;DHT22;38763;53.096;6.062;2022-11-09T14:09:18;12.10;99.90
52899;DHT22;38763;53.096;6.062;2022-11-09T14:12:06;12.00;99.90
52899;DHT22;38763;53.096;6.062;2022-11-09T14:22:47;11.90;99.90
52899;DHT22;38763;53.096;6.062;2022-11-09T14:25:18;11.80;99.90
52899;DHT22;38763;53.096;6.062;2022-11-09T14:27:53;11.70;99.90
52899;DHT22;38763;53.096;6.062;2022-11-09T14:30:29;11.60;99.90
52899;DHT22;38763;53.096;6.062;2022-11-09T14:32:56;11.60;99.90
52899;DHT22;38763;53.096;6.062;2022-11-09T14:35:25;11.60;99.90
52899;DHT22;38763;53.096;6.062;2022-11-09T14:37:53;11.60;99.90
52899;DHT22;38763;53.096;6.062;2022-11-09T14:40:25;11.60;99.90
52899;DHT22;38763;53.096;6.062;2022-11-09T14:42:57;11.50;99.90
52899;DHT22;38763;53.096;6.062;2022-11-09T14:45:24;11.40;99.90
52899;DHT22;38763;53.096;6.062;2022-11-09T14:47:54;11.40;99.90
52899;DHT22;38763;53.096;6.062;2022-11-09T14:50:25;11.30;99.90
52899;DHT22;38763;53.096;6.062;2022-11-09T14:52:53;11.40;99.90
52899;DHT22;38763;53.096;6.062;2022-11-09T14:55:21;11.30;99.90
52899;DHT22;38763;53.096;6.062;2022-11-09T14:57:48;11.30;99.90
52899;DHT22;38763;53.096;6.062;2022-11-09T15:00:24;11.20;99.90
52899;DHT22;38763;53.096;6.062;2022-11-09T15:02:50;11.30;99.90
52899;DHT22;38763;53.096;6.062;2022-11-09T15:05:37;11.30;99.90
52899;DHT22;38763;53.096;6.062;2022-11-09T15:08:18;11.30;99.90
52899;DHT22;38763;53.096;6.062;2022-11-09T15:10:49;11.30;99.90
52899;DHT22;38763;53.096;6.062;2022-11-09T15:13:16;11.30;99.90
52899;DHT22;38763;53.096;6.062;2022-11-09T15:15:49;11.30;99.90
52899;DHT22;38763;53.096;6.062;2022-11-09T15:18:17;11.20;99.90
52899;DHT22;38763;53.096;6.062;2022-11-09T15:20:43;11.30;99.90
52899;DHT22;38763;53.096;6.062;2022-11-09T15:23:37;11.20;99.90
52899;DHT22;38763;53.096;6.062;2022-11-09T15:26:03;11.30;99.90
52899;DHT22;38763;53.096;6.062;2022-11-09T15:28:29;11.10;99.90
52899;DHT22;38763;53.096;6.062;2022-11-09T15:33:37;11.30;99.90
52899;DHT22;38763;53.096;6.062;2022-11-09T15:36:16;11.30;99.90
52899;DHT22;38763;53.096;6.062;2022-11-09T15:38:45;11.10;99.90
52899;DHT22;38763;53.096;6.062;2022-11-09T15:41:20;11.10;99.90
52899;DHT22;38763;53.096;6.062;2022-11-09T15:43:46;11.20;99.90
52899;DHT22;38763;53.096;6.062;2022-11-09T15:46:14;11.10;99.90
52899;DHT22;38763;53.096;6.062;2022-11-09T15:48:41;11.10;99.90
52899;DHT22;38763;53.096;6.062;2022-11-09T15:51:09;11.00;99.90
52899;DHT22;38763;53.096;6.062;2022-11-09T15:53:34;11.10;99.90
52899;DHT22;38763;53.096;6.062;2022-11-09T15:56:00;11.00;99.90
52899;DHT22;38763;53.096;6.062;2022-11-09T15:58:26;11.00;99.90
52899;DHT22;38763;53.096;6.062;2022-11-09T16:00:51;11.10;99.90
52899;DHT22;38763;53.096;6.062;2022-11-09T16:03:17;11.00;99.90
52899;DHT22;38763;53.096;6.062;2022-11-09T16:05:45;11.00;99.90
52899;DHT22;38763;53.096;6.062;2022-11-09T16:08:11;11.00;99.90
52899;DHT22;38763;53.096;6.062;2022-11-09T16:10:38;11.10;99.90
52899;DHT22;38763;53.096;6.062;2022-11-09T16:13:05;11.10;99.90
52899;DHT22;38763;53.096;6.062;2022-11-09T16:15:32;11.10;99.90
52899;DHT22;38763;53.096;6.062;2022-11-09T16:17:57;11.00;99.90
52899;DHT22;38763;53.096;6.062;2022-11-09T16:20:23;11.00;99.90
52899;DHT22;38763;53.096;6.062;2022-11-09T16:22:48;11.00;99.90
52899;DHT22;38763;53.096;6.062;2022-11-09T16:25:15;10.90;99.90
52899;DHT22;38763;53.096;6.062;2022-11-09T16:27:41;11.00;99.90
52899;DHT22;38763;53.096;6.062;2022-11-09T16:30:07;11.00;99.90
52899;DHT22;38763;53.096;6.062;2022-11-09T16:32:34;10.90;99.90
52899;DHT22;38763;53.096;6.062;2022-11-09T16:35:00;10.90;99.90
52899;DHT22;38763;53.096;6.062;2022-11-09T16:37:28;10.80;99.90
52899;DHT22;38763;53.096;6.062;2022-11-09T16:39:57;10.80;99.90
52899;DHT22;38763;53.096;6.062;2022-11-09T16:42:24;10.70;99.90
52899;DHT22;38763;53.096;6.062;2022-11-09T16:44:50;10.70;99.90
52899;DHT22;38763;53.096;6.062;2022-11-09T16:47:17;10.70;99.90
52899;DHT22;38763;53.096;6.062;2022-11-09T16:49:43;10.70;99.90
52899;DHT22;38763;53.096;6.062;2022-11-09T16:52:09;10.80;99.90
52899;DHT22;38763;53.096;6.062;2022-11-09T16:54:35;10.70;99.90
52899;DHT22;38763;53.096;6.062;2022-11-09T16:57:01;10.80;99.90
52899;DHT22;38763;53.096;6.062;2022-11-09T16:59:27;10.80;99.90
52899;DHT22;38763;53.096;6.062;2022-11-09T17:01:55;10.80;99.90
52899;DHT22;38763;53.096;6.062;2022-11-09T17:04:21;10.90;99.90
52899;DHT22;38763;53.096;6.062;2022-11-09T17:06:47;10.90;99.90
52899;DHT22;38763;53.096;6.062;2022-11-09T17:09:13;10.90;99.90
52899;DHT22;38763;53.096;6.062;2022-11-09T17:11:39;10.90;99.90
52899;DHT22;38763;53.096;6.062;2022-11-09T17:14:05;11.00;99.90
52899;DHT22;38763;53.096;6.062;2022-11-09T17:16:31;10.90;99.90
52899;DHT22;38763;53.096;6.062;2022-11-09T17:18:57;10.80;99.90
52899;DHT22;38763;53.096;6.062;2022-11-09T17:21:24;10.90;99.90
52899;DHT22;38763;53.096;6.062;2022-11-09T17:23:51;10.90;99.90
52899;DHT22;38763;53.096;6.062;2022-11-09T17:26:18;10.70;99.90
52899;DHT22;38763;53.096;6.062;2022-11-09T17:28:43;10.80;99.90
52899;DHT22;38763;53.096;6.062;2022-11-09T17:31:14;10.80;99.90